Time;durP1;ratioP1;P1;durP2;ratioP2;P2;SDS_P1;SDS_P2;PMS_P1;PMS_P2;Temp;Humidity;BMP_temperature;BMP_pressure;BME280_temperature;BME280_humidity;BME280_pressure;Samples;Min_cycle;Max_cycle;Signal;HPM_P1;HPM_P2
2022/02/03 00:00:01;;;;;;;2.47;1.55;;;;;;;;;;5008531;28;20121;-59
2022/02/03 00:02:38;;;;;;;2.97;1.77;;;;;;;;;;4995765;28;20041;-62
2022/02/03 00:05:11;;;;;;;2.47;1.70;;;;;;;;;;4988547;28;20030;-60
2022/02/03 00:10:26;;;;;;;2.38;1.48;;;;;;;;;;4989154;28;20018;-61
2022/02/03 00:24:14;;;;;;;2.38;1.65;;;;;;;;;;4989331;28;20029;-61
2022/02/03 00:27:04;;;;;;;2.47;1.60;;;;;;;;;;4990595;28;20062;-59
2022/02/03 00:29:48;;;;;;;2.75;1.67;;;;;;;;;;4995742;28;20025;-58
2022/02/03 00:33:12;;;;;;;3.03;1.95;;;;;;;;;;5005345;28;20081;-59
2022/02/03 00:35:32;;;;;;;2.30;1.50;;;;;;;;;;5002141;28;20033;-58
2022/02/03 00:48:33;;;;;;;2.38;1.50;;;;;;;;;;4986174;28;20036;-59
2022/02/03 00:50:59;;;;;;;2.28;1.60;;;;;;;;;;4985978;28;20034;-59
2022/02/03 00:53:25;;;;;;;2.20;1.52;;;;;;;;;;5004961;28;20033;-59
2022/02/03 00:55:51;;;;;;;2.30;1.70;;;;;;;;;;5000302;28;20029;-60
2022/02/03 00:58:17;;;;;;;2.33;1.40;;;;;;;;;;4996384;28;20026;-60
2022/02/03 01:00:43;;;;;;;2.85;1.63;;;;;;;;;;5005040;28;20033;-62
2022/02/03 01:03:14;;;;;;;2.40;1.58;;;;;;;;;;4985280;28;20022;-59
2022/02/03 01:05:40;;;;;;;3.35;1.85;;;;;;;;;;4984924;28;20666;-58
2022/02/03 01:08:14;;;;;;;3.22;1.90;;;;;;;;;;4985496;28;20027;-59
2022/02/03 01:10:45;;;;;;;2.78;1.52;;;;;;;;;;4985064;28;20507;-58
2022/02/03 01:13:20;;;;;;;1.88;1.20;;;;;;;;;;5001693;28;20132;-60
2022/02/03 01:15:58;;;;;;;2.47;1.77;;;;;;;;;;5004888;28;20702;-58
2022/02/03 01:35:01;;;;;;;2.10;1.30;;;;;;;;;;5003075;28;20132;-62
2022/02/03 01:45:47;;;;;;;2.30;1.50;;;;;;;;;;4987426;28;20100;-62
2022/02/03 01:53:39;;;;;;;3.20;2.00;;;;;;;;;;4990325;28;20068;-61
2022/02/03 01:56:09;;;;;;;2.42;1.50;;;;;;;;;;4994647;28;20042;-59
2022/02/03 01:58:37;;;;;;;2.47;1.70;;;;;;;;;;4984279;28;20022;-58
2022/02/03 02:01:03;;;;;;;2.72;1.60;;;;;;;;;;5000315;28;20421;-59
2022/02/03 02:03:52;;;;;;;2.40;1.55;;;;;;;;;;4983702;28;20026;-60
2022/02/03 02:06:27;;;;;;;2.30;1.73;;;;;;;;;;4982945;28;20046;-59
2022/02/03 02:09:01;;;;;;;2.58;1.55;;;;;;;;;;4983959;28;20026;-58
2022/02/03 02:11:41;;;;;;;2.20;1.60;;;;;;;;;;4988004;28;20050;-58
2022/02/03 02:44:06;;;;;;;2.33;1.50;;;;;;;;;;5002540;28;20185;-58
2022/02/03 02:46:34;;;;;;;2.55;1.80;;;;;;;;;;5002999;28;20052;-59
2022/02/03 02:49:10;;;;;;;2.20;1.27;;;;;;;;;;5002355;28;20025;-62
2022/02/03 02:51:41;;;;;;;2.75;1.80;;;;;;;;;;5002904;28;20022;-59
2022/02/03 03:32:19;;;;;;;2.00;1.60;;;;;;;;;;5000799;28;20538;-57
2022/02/03 03:37:13;;;;;;;2.17;1.48;;;;;;;;;;5002504;28;20018;-58
2022/02/03 03:39:45;;;;;;;1.77;1.38;;;;;;;;;;5002133;28;20463;-58
2022/02/03 03:42:13;;;;;;;1.88;1.35;;;;;;;;;;4993247;28;20155;-58
2022/02/03 03:44:38;;;;;;;2.13;1.50;;;;;;;;;;4982822;28;20523;-59
2022/02/03 03:47:04;;;;;;;2.87;1.60;;;;;;;;;;4983347;28;20093;-58
2022/02/03 03:49:37;;;;;;;2.45;1.60;;;;;;;;;;4982922;28;20791;-58
2022/02/03 03:52:04;;;;;;;2.45;1.67;;;;;;;;;;4990578;28;20030;-61
2022/02/03 03:54:41;;;;;;;2.72;1.90;;;;;;;;;;5002229;28;21514;-59
2022/02/03 04:38:55;;;;;;;2.67;1.38;;;;;;;;;;5005666;28;20045;-61
2022/02/03 04:51:32;;;;;;;1.95;1.30;;;;;;;;;;4985525;28;20041;-63
2022/02/03 05:01:56;;;;;;;1.80;1.23;;;;;;;;;;4989601;28;20034;-59
2022/02/03 05:10:57;;;;;;;2.03;1.30;;;;;;;;;;5005000;28;20022;-62
2022/02/03 05:13:29;;;;;;;2.63;1.63;;;;;;;;;;5000438;28;20136;-60
2022/02/03 05:32:56;;;;;;;2.47;1.48;;;;;;;;;;4994704;28;20519;-63
2022/02/03 06:05:33;;;;;;;3.65;1.40;;;;;;;;;;4984083;28;20572;-59
2022/02/03 06:13:15;;;;;;;2.45;1.50;;;;;;;;;;5002037;28;20512;-58
2022/02/03 06:16:02;;;;;;;2.15;1.35;;;;;;;;;;5002081;28;20041;-59
2022/02/03 06:21:25;;;;;;;3.10;1.42;;;;;;;;;;4999758;28;20519;-64
2022/02/03 06:23:56;;;;;;;2.15;1.40;;;;;;;;;;5002345;28;20029;-56
2022/02/03 06:29:07;;;;;;;2.42;1.00;;;;;;;;;;5003594;28;20084;-53
2022/02/03 06:31:39;;;;;;;2.38;1.40;;;;;;;;;;5004148;28;20034;-57
2022/02/03 06:34:04;;;;;;;3.05;1.63;;;;;;;;;;5003588;28;20113;-57
2022/02/03 06:36:29;;;;;;;1.67;1.27;;;;;;;;;;4993492;28;20470;-64
2022/02/03 06:38:54;;;;;;;3.03;1.30;;;;;;;;;;4992783;28;20088;-56
2022/02/03 06:41:20;;;;;;;1.70;1.20;;;;;;;;;;5001766;28;20284;-54
2022/02/03 06:43:45;;;;;;;1.88;1.30;;;;;;;;;;5003669;28;20284;-57
2022/02/03 06:46:12;;;;;;;2.65;1.60;;;;;;;;;;5004692;28;20030;-55
2022/02/03 06:48:39;;;;;;;2.10;1.30;;;;;;;;;;5003193;28;20573;-53
2022/02/03 06:51:14;;;;;;;2.25;1.40;;;;;;;;;;5003524;28;20048;-54
2022/02/03 06:53:42;;;;;;;1.92;1.35;;;;;;;;;;4986493;28;20038;-56
2022/02/03 06:56:17;;;;;;;2.40;1.50;;;;;;;;;;5003459;28;20032;-58
2022/02/03 07:01:19;;;;;;;4.27;1.23;;;;;;;;;;5002711;28;20060;-56
2022/02/03 07:03:53;;;;;;;1.90;1.20;;;;;;;;;;5003369;28;20026;-53
2022/02/03 07:06:18;;;;;;;1.58;1.15;;;;;;;;;;5005716;28;20045;-53
2022/02/03 07:08:46;;;;;;;6.07;1.60;;;;;;;;;;5003857;28;20032;-53
2022/02/03 07:11:11;;;;;;;2.17;1.15;;;;;;;;;;4991922;28;20827;-54
2022/02/03 07:13:36;;;;;;;1.95;1.33;;;;;;;;;;4991125;28;20049;-55
2022/02/03 07:16:02;;;;;;;2.42;1.60;;;;;;;;;;4992546;28;20520;-54
2022/02/03 07:18:28;;;;;;;2.20;1.40;;;;;;;;;;4999771;28;20030;-53
2022/02/03 07:20:53;;;;;;;2.28;1.40;;;;;;;;;;5006278;28;20450;-54
2022/02/03 07:23:19;;;;;;;2.33;1.37;;;;;;;;;;4986657;28;20057;-53
2022/02/03 07:25:44;;;;;;;2.10;1.30;;;;;;;;;;4983779;28;20027;-53
2022/02/03 07:28:09;;;;;;;2.27;1.30;;;;;;;;;;4982489;28;20312;-54
2022/02/03 07:30:35;;;;;;;2.40;1.43;;;;;;;;;;4993889;28;20699;-56
2022/02/03 07:33:02;;;;;;;1.95;1.30;;;;;;;;;;5002803;28;20304;-59
2022/02/03 07:35:29;;;;;;;2.67;1.58;;;;;;;;;;5005784;28;20030;-55
2022/02/03 07:37:54;;;;;;;2.70;1.65;;;;;;;;;;5007146;28;20396;-55
2022/02/03 07:40:20;;;;;;;2.85;1.60;;;;;;;;;;5007227;28;20430;-56
2022/02/03 07:42:47;;;;;;;2.78;1.60;;;;;;;;;;4994650;28;20030;-54
2022/02/03 07:45:13;;;;;;;2.00;1.30;;;;;;;;;;4989736;28;20037;-57
2022/02/03 07:47:42;;;;;;;1.55;1.25;;;;;;;;;;5005927;28;20605;-57
2022/02/03 07:50:07;;;;;;;2.90;1.40;;;;;;;;;;5006453;28;20294;-55
2022/02/03 07:52:32;;;;;;;1.95;1.20;;;;;;;;;;5006065;28;20149;-54
2022/02/03 07:54:57;;;;;;;2.08;1.20;;;;;;;;;;5006030;28;20380;-55
2022/02/03 07:57:23;;;;;;;2.13;1.33;;;;;;;;;;5002068;28;20022;-56
2022/02/03 07:59:49;;;;;;;2.30;1.42;;;;;;;;;;5006232;28;20029;-55
2022/02/03 08:02:14;;;;;;;2.60;1.57;;;;;;;;;;4998965;28;20037;-55
2022/02/03 08:04:44;;;;;;;2.30;1.50;;;;;;;;;;4986694;28;20866;-60
2022/02/03 08:07:12;;;;;;;1.90;1.20;;;;;;;;;;4986863;28;20055;-63
2022/02/03 08:12:11;;;;;;;2.15;1.40;;;;;;;;;;4999092;28;20034;-59
2022/02/03 08:14:39;;;;;;;1.92;1.52;;;;;;;;;;5013804;28;20567;-54
2022/02/03 08:17:12;;;;;;;2.67;1.30;;;;;;;;;;5013404;28;20025;-55
2022/02/03 08:19:55;;;;;;;2.00;1.40;;;;;;;;;;5008372;28;20092;-61
2022/02/03 08:22:26;;;;;;;2.10;1.45;;;;;;;;;;4997361;28;20030;-57
2022/02/03 08:32:43;;;;;;;2.25;1.20;;;;;;;;;;4996590;28;20542;-63
2022/02/03 08:35:20;;;;;;;1.92;1.30;;;;;;;;;;5005358;28;20033;-63
2022/02/03 08:38:16;;;;;;;2.50;1.48;;;;;;;;;;5005375;28;20021;-62
2022/02/03 08:40:43;;;;;;;2.83;1.50;;;;;;;;;;4995801;28;20053;-62
2022/02/03 08:43:09;;;;;;;2.08;1.20;;;;;;;;;;4999522;28;20041;-54
2022/02/03 08:45:34;;;;;;;2.30;1.48;;;;;;;;;;5005073;28;20030;-61
2022/02/03 08:47:59;;;;;;;2.73;1.50;;;;;;;;;;5005150;28;20117;-57
2022/02/03 08:50:25;;;;;;;2.20;1.40;;;;;;;;;;5005414;28;20141;-59
2022/02/03 08:53:00;;;;;;;2.92;1.60;;;;;;;;;;5004948;28;20072;-62
2022/02/03 08:55:33;;;;;;;2.05;1.42;;;;;;;;;;5005413;28;20033;-55
2022/02/03 09:59:32;;;;;;;2.33;1.42;;;;;;;;;;5002844;28;20411;-58
2022/02/03 10:02:06;;;;;;;2.50;1.40;;;;;;;;;;4988477;28;20026;-53
2022/02/03 10:04:44;;;;;;;2.30;1.35;;;;;;;;;;5003947;28;20018;-53
2022/02/03 10:07:15;;;;;;;2.20;1.17;;;;;;;;;;5003262;28;20057;-58
2022/02/03 10:09:41;;;;;;;3.00;1.52;;;;;;;;;;5003484;28;20021;-58
2022/02/03 10:12:07;;;;;;;2.38;1.48;;;;;;;;;;5003329;28;20068;-52
2022/02/03 10:14:33;;;;;;;3.25;1.52;;;;;;;;;;5003280;28;20057;-58
2022/02/03 10:16:58;;;;;;;3.25;1.50;;;;;;;;;;5003300;28;20503;-57
2022/02/03 10:19:30;;;;;;;2.97;1.45;;;;;;;;;;4998769;28;20057;-55
2022/02/03 10:21:56;;;;;;;2.13;1.30;;;;;;;;;;4987181;28;20017;-57
2022/02/03 10:24:23;;;;;;;1.95;1.23;;;;;;;;;;5003241;28;20033;-57
2022/02/03 10:26:50;;;;;;;2.35;1.55;;;;;;;;;;5003653;28;20018;-53
2022/02/03 10:29:19;;;;;;;2.60;1.20;;;;;;;;;;5003395;28;20026;-56
2022/02/03 10:31:45;;;;;;;2.40;1.40;;;;;;;;;;5003087;28;20025;-56
2022/02/03 10:34:13;;;;;;;3.03;1.73;;;;;;;;;;5003094;28;20037;-57
2022/02/03 10:36:48;;;;;;;2.78;1.63;;;;;;;;;;5003532;28;20030;-58
2022/02/03 10:45:25;;;;;;;2.50;1.50;;;;;;;;;;4990869;28;20105;-52
2022/02/03 10:53:12;;;;;;;10.23;1.67;;;;;;;;;;5002908;28;20135;-64
2022/02/03 11:03:18;;;;;;;5.15;1.65;;;;;;;;;;4990676;28;20026;-55
2022/02/03 11:08:47;;;;;;;4.18;1.70;;;;;;;;;;4981105;28;20129;-62
2022/02/03 11:11:18;;;;;;;4.28;1.55;;;;;;;;;;4982978;28;20477;-60
2022/02/03 11:13:43;;;;;;;5.13;1.85;;;;;;;;;;5000456;28;20037;-57
2022/02/03 11:16:10;;;;;;;3.97;1.57;;;;;;;;;;5002853;28;20503;-62
2022/02/03 11:18:35;;;;;;;4.53;1.77;;;;;;;;;;5002261;28;20303;-57
2022/02/03 11:21:01;;;;;;;2.80;1.55;;;;;;;;;;5000824;28;20033;-59
2022/02/03 11:31:29;;;;;;;2.42;1.60;;;;;;;;;;5002450;28;20227;-56
2022/02/03 11:34:49;;;;;;;2.78;1.50;;;;;;;;;;5001800;28;20449;-56
2022/02/03 11:42:21;;;;;;;2.47;1.55;;;;;;;;;;4985783;28;20041;-59
2022/02/03 12:03:43;;;;;;;2.63;1.60;;;;;;;;;;4988657;28;20130;-56
2022/02/03 12:12:19;;;;;;;2.55;1.60;;;;;;;;;;5002124;28;20064;-55
2022/02/03 12:20:25;;;;;;;3.22;1.60;;;;;;;;;;4987970;28;20061;-54
2022/02/03 12:23:06;;;;;;;3.03;1.60;;;;;;;;;;5003942;28;20036;-53
2022/02/03 12:25:48;;;;;;;3.05;1.77;;;;;;;;;;4999276;28;20045;-54
2022/02/03 12:28:24;;;;;;;3.10;1.80;;;;;;;;;;5005549;28;20035;-54
2022/02/03 12:37:00;;;;;;;3.00;1.77;;;;;;;;;;5004602;28;20038;-54
2022/02/03 12:38:53;;;;;;;2.72;1.65;;;;;;;;;;5013468;28;20104;-55
2022/02/03 12:41:33;;;;;;;2.83;1.92;;;;;;;;;;5005978;28;20037;-55
2022/02/03 12:44:04;;;;;;;2.97;1.80;;;;;;;;;;4986231;28;20022;-55
2022/02/03 12:46:30;;;;;;;3.65;1.83;;;;;;;;;;4999518;28;20021;-55
2022/02/03 12:48:56;;;;;;;2.67;1.75;;;;;;;;;;5005572;28;20040;-53
2022/02/03 12:51:22;;;;;;;3.17;1.80;;;;;;;;;;5001044;28;20504;-55
2022/02/03 12:53:47;;;;;;;2.70;1.90;;;;;;;;;;5002714;28;20041;-53
2022/02/03 12:56:12;;;;;;;3.88;1.77;;;;;;;;;;4992775;28;20448;-56
2022/02/03 12:58:48;;;;;;;3.55;1.80;;;;;;;;;;5005037;28;20030;-54
2022/02/03 13:01:16;;;;;;;4.03;1.90;;;;;;;;;;5005312;28;20069;-54
2022/02/03 13:03:48;;;;;;;3.90;1.80;;;;;;;;;;4988875;28;20078;-55
2022/02/03 13:06:18;;;;;;;4.20;2.00;;;;;;;;;;4998712;28;20057;-55
2022/02/03 13:08:49;;;;;;;2.33;1.60;;;;;;;;;;5005168;28;20014;-55
2022/02/03 13:14:09;;;;;;;3.75;1.70;;;;;;;;;;5003476;28;20526;-54
2022/02/03 13:16:34;;;;;;;4.57;1.85;;;;;;;;;;5005034;28;20496;-56
2022/02/03 13:19:07;;;;;;;4.97;1.67;;;;;;;;;;5004900;28;20029;-53
2022/02/03 13:24:02;;;;;;;3.85;1.80;;;;;;;;;;4988135;28;20518;-55
2022/02/03 13:26:32;;;;;;;2.85;1.50;;;;;;;;;;4989358;28;20041;-56
2022/02/03 13:29:05;;;;;;;2.35;1.65;;;;;;;;;;4988573;28;20030;-55
2022/02/03 13:31:44;;;;;;;2.45;1.55;;;;;;;;;;4985588;28;20034;-54
2022/02/03 13:34:17;;;;;;;3.25;1.40;;;;;;;;;;4985444;28;20057;-57
2022/02/03 13:36:48;;;;;;;3.03;1.80;;;;;;;;;;4988921;28;20136;-54
2022/02/03 13:39:25;;;;;;;4.50;2.08;;;;;;;;;;4985899;28;20022;-57
2022/02/03 13:41:59;;;;;;;2.63;1.50;;;;;;;;;;4986737;28;20030;-56
2022/02/03 13:44:27;;;;;;;4.22;1.77;;;;;;;;;;5002442;28;20025;-59
2022/02/03 13:46:52;;;;;;;2.17;1.60;;;;;;;;;;5004692;28;20099;-55
2022/02/03 13:49:19;;;;;;;3.33;1.60;;;;;;;;;;5004163;28;20026;-53
2022/02/03 13:51:46;;;;;;;3.25;1.67;;;;;;;;;;5003545;28;20104;-55
2022/02/03 13:54:41;;;;;;;3.05;1.98;;;;;;;;;;5004171;28;20149;-58
2022/02/03 14:21:45;;;;;;;3.25;1.67;;;;;;;;;;5009239;28;20053;-51
2022/02/03 14:27:27;;;;;;;3.45;2.10;;;;;;;;;;5004859;28;20059;-63
2022/02/03 14:29:58;;;;;;;3.15;1.80;;;;;;;;;;5010988;28;20103;-57
2022/02/03 14:32:37;;;;;;;3.25;2.13;;;;;;;;;;5010227;28;20064;-59
2022/02/03 14:35:05;;;;;;;2.65;1.70;;;;;;;;;;5011006;28;20107;-56
2022/02/03 14:42:36;;;;;;;3.47;1.52;;;;;;;;;;5003204;28;20026;-56
2022/02/03 14:45:02;;;;;;;3.45;1.70;;;;;;;;;;4991091;28;20022;-56
2022/02/03 14:47:29;;;;;;;4.65;1.60;;;;;;;;;;4991733;28;20326;-57
2022/02/03 14:49:55;;;;;;;2.60;1.50;;;;;;;;;;4989251;28;20034;-58
2022/02/03 15:00:22;;;;;;;3.38;1.67;;;;;;;;;;5009837;28;20072;-60
2022/02/03 15:02:48;;;;;;;2.40;1.40;;;;;;;;;;5001455;28;20037;-60
2022/02/03 15:05:22;;;;;;;3.85;1.80;;;;;;;;;;4991906;28;20030;-59
2022/02/03 15:07:48;;;;;;;2.95;1.63;;;;;;;;;;4992485;28;20030;-58
2022/02/03 15:10:28;;;;;;;2.08;1.50;;;;;;;;;;4990774;28;20026;-56
2022/02/03 15:12:59;;;;;;;;;;;;;;;;;;5001440;28;20539;-55
2022/02/03 15:15:25;;;;;;;2.00;1.58;;;;;;;;;;5011164;28;19996;-58
2022/02/03 15:17:50;;;;;;;3.10;1.30;;;;;;;;;;5015483;28;20076;-55
2022/02/03 15:20:15;;;;;;;2.63;1.40;;;;;;;;;;5021730;28;20265;-56
2022/02/03 15:22:40;;;;;;;3.72;1.63;;;;;;;;;;5015170;28;20316;-57
2022/02/03 15:25:06;;;;;;;1.97;1.27;;;;;;;;;;4997271;28;20105;-56
2022/02/03 15:27:31;;;;;;;2.95;1.60;;;;;;;;;;5004365;28;20054;-56
2022/02/03 15:30:01;;;;;;;2.93;1.70;;;;;;;;;;5004432;28;20036;-55
2022/02/03 15:32:26;;;;;;;2.40;1.40;;;;;;;;;;5003746;28;20450;-55
2022/02/03 15:34:53;;;;;;;2.67;1.60;;;;;;;;;;5003668;28;20037;-57
2022/02/03 15:37:20;;;;;;;3.20;1.50;;;;;;;;;;5002864;28;20026;-55
2022/02/03 15:39:51;;;;;;;2.78;1.50;;;;;;;;;;5002362;28;20503;-57
2022/02/03 15:42:24;;;;;;;2.53;1.50;;;;;;;;;;5002921;28;20029;-63
2022/02/03 15:44:52;;;;;;;2.33;1.38;;;;;;;;;;5002924;28;20018;-56
2022/02/03 15:47:34;;;;;;;2.42;1.48;;;;;;;;;;4992835;28;20081;-57
2022/02/03 16:00:56;;;;;;;2.13;1.40;;;;;;;;;;5014971;28;20021;-55
2022/02/03 16:19:13;;;;;;;2.17;1.38;;;;;;;;;;5001563;28;20095;-58
2022/02/03 16:22:21;;;;;;;3.42;1.67;;;;;;;;;;4990297;28;20022;-59
2022/02/03 16:41:10;;;;;;;1.95;1.40;;;;;;;;;;4995480;28;20097;-58
2022/02/03 16:54:31;;;;;;;2.45;1.40;;;;;;;;;;5002849;28;20044;-54
2022/02/03 16:57:01;;;;;;;2.22;1.40;;;;;;;;;;5004358;28;20022;-56
2022/02/03 16:59:29;;;;;;;2.33;1.65;;;;;;;;;;5004838;28;20060;-54
2022/02/03 17:01:54;;;;;;;2.30;1.20;;;;;;;;;;5004259;28;20029;-55
2022/02/03 17:04:19;;;;;;;2.43;1.37;;;;;;;;;;4983835;28;20499;-53
2022/02/03 17:06:45;;;;;;;1.80;1.30;;;;;;;;;;4984465;28;20296;-55
2022/02/03 17:09:10;;;;;;;2.67;1.60;;;;;;;;;;4985827;28;20053;-53
2022/02/03 17:11:35;;;;;;;2.47;1.40;;;;;;;;;;5003851;28;20443;-54
2022/02/03 17:14:01;;;;;;;3.07;1.80;;;;;;;;;;5003657;28;20331;-53
2022/02/03 17:16:26;;;;;;;2.33;1.60;;;;;;;;;;5004069;28;20029;-55
2022/02/03 17:18:52;;;;;;;2.20;1.38;;;;;;;;;;5004663;28;20037;-54
2022/02/03 17:21:18;;;;;;;2.03;1.30;;;;;;;;;;5004867;28;20482;-54
2022/02/03 17:23:44;;;;;;;2.72;1.67;;;;;;;;;;5003164;28;20512;-53
2022/02/03 17:28:51;;;;;;;2.70;1.40;;;;;;;;;;4985615;28;20053;-55
2022/02/03 17:31:27;;;;;;;2.03;1.30;;;;;;;;;;4985732;28;20042;-57
2022/02/03 17:52:17;;;;;;;2.30;1.50;;;;;;;;;;5003837;28;20041;-53
2022/02/03 18:30:29;;;;;;;2.20;1.65;;;;;;;;;;5004656;28;20037;-52
2022/02/03 18:51:13;;;;;;;2.95;2.00;;;;;;;;;;5002203;28;20041;-55
2022/02/03 18:57:00;;;;;;;3.17;1.48;;;;;;;;;;5002455;28;20026;-54
2022/02/03 20:03:46;;;;;;;2.40;1.60;;;;;;;;;;4988621;28;20015;-53
2022/02/03 20:08:55;;;;;;;2.20;1.40;;;;;;;;;;5004495;28;20097;-52
2022/02/03 20:11:22;;;;;;;3.17;1.60;;;;;;;;;;4986430;28;20118;-54
2022/02/03 20:13:48;;;;;;;2.80;2.15;;;;;;;;;;4985927;28;20030;-52
2022/02/03 20:16:18;;;;;;;2.35;1.75;;;;;;;;;;4986250;28;20093;-52
2022/02/03 20:18:44;;;;;;;2.10;1.70;;;;;;;;;;4986518;28;20018;-54
2022/02/03 20:21:09;;;;;;;2.10;1.50;;;;;;;;;;4986335;28;20031;-53
2022/02/03 20:23:41;;;;;;;2.58;1.70;;;;;;;;;;4986275;28;20026;-52
2022/02/03 20:26:06;;;;;;;2.58;1.70;;;;;;;;;;5001412;28;20055;-53
2022/02/03 20:28:31;;;;;;;2.40;1.60;;;;;;;;;;5002529;28;20095;-55
2022/02/03 20:30:56;;;;;;;2.50;1.80;;;;;;;;;;4987319;28;20254;-54
2022/02/03 20:33:22;;;;;;;2.55;1.90;;;;;;;;;;4987006;28;20129;-54
2022/02/03 20:35:49;;;;;;;2.53;1.83;;;;;;;;;;4986474;28;20558;-52
2022/02/03 20:38:15;;;;;;;2.40;1.75;;;;;;;;;;4986816;28;20034;-53
2022/02/03 20:40:41;;;;;;;2.55;1.73;;;;;;;;;;4989774;28;20030;-52
2022/02/03 20:43:06;;;;;;;2.40;1.70;;;;;;;;;;4997877;28;20114;-54
2022/02/03 20:45:31;;;;;;;2.47;1.70;;;;;;;;;;4985849;28;20095;-55
2022/02/03 20:47:57;;;;;;;2.07;1.60;;;;;;;;;;4985888;28;20065;-54
2022/02/03 20:50:22;;;;;;;2.63;1.83;;;;;;;;;;4985388;28;20069;-56
2022/02/03 20:52:47;;;;;;;2.73;1.70;;;;;;;;;;4996416;28;20072;-53
2022/02/03 20:55:13;;;;;;;2.72;1.70;;;;;;;;;;5003019;28;20276;-54
2022/02/03 20:57:38;;;;;;;2.10;1.63;;;;;;;;;;5003042;28;20018;-51
2022/02/03 21:00:23;;;;;;;2.08;1.58;;;;;;;;;;5005104;28;20041;-55
2022/02/03 21:05:16;;;;;;;2.70;2.00;;;;;;;;;;5004909;28;20093;-53
2022/02/03 21:07:42;;;;;;;2.90;1.70;;;;;;;;;;5005055;28;20999;-54
2022/02/03 21:10:10;;;;;;;2.50;1.67;;;;;;;;;;5005032;28;20114;-53
2022/02/03 21:12:35;;;;;;;2.83;1.70;;;;;;;;;;5004597;28;20104;-53
2022/02/03 21:15:01;;;;;;;2.60;1.52;;;;;;;;;;5004730;28;20500;-55
2022/02/03 21:17:29;;;;;;;2.15;1.70;;;;;;;;;;5004893;28;20531;-52
2022/02/03 21:19:54;;;;;;;2.55;1.65;;;;;;;;;;4995654;28;20022;-52
2022/02/03 21:22:21;;;;;;;2.17;1.45;;;;;;;;;;4985829;28;20038;-53
2022/02/03 21:24:46;;;;;;;2.08;1.55;;;;;;;;;;5003844;28;20472;-52
2022/02/03 21:27:17;;;;;;;2.07;1.70;;;;;;;;;;5004319;28;20037;-52
2022/02/03 21:29:43;;;;;;;2.67;1.50;;;;;;;;;;5004637;28;20367;-52
2022/02/03 21:32:08;;;;;;;3.05;1.40;;;;;;;;;;5004419;28;20117;-53
2022/02/03 21:34:34;;;;;;;2.53;1.70;;;;;;;;;;5004164;28;20022;-53
2022/02/03 21:36:59;;;;;;;1.98;1.50;;;;;;;;;;5001742;28;20488;-52
2022/02/03 21:39:24;;;;;;;1.90;1.67;;;;;;;;;;4986500;28;20019;-52
2022/02/03 21:41:49;;;;;;;2.20;1.60;;;;;;;;;;4986727;28;20026;-52
2022/02/03 21:44:15;;;;;;;2.70;1.73;;;;;;;;;;4999290;28;20261;-52
2022/02/03 21:46:41;;;;;;;2.65;1.83;;;;;;;;;;5004072;28;20812;-52
2022/02/03 21:49:06;;;;;;;2.88;1.65;;;;;;;;;;5004411;28;20377;-51
2022/02/03 21:51:38;;;;;;;2.30;1.80;;;;;;;;;;5004155;28;20033;-53
2022/02/03 21:54:04;;;;;;;2.72;1.70;;;;;;;;;;5001923;28;20301;-53
2022/02/03 21:56:29;;;;;;;2.17;1.57;;;;;;;;;;5003541;28;20026;-53
2022/02/03 21:58:56;;;;;;;3.13;2.10;;;;;;;;;;5003842;28;20264;-52
2022/02/03 22:01:23;;;;;;;2.63;2.00;;;;;;;;;;5003567;28;20395;-53
2022/02/03 22:03:48;;;;;;;2.42;1.77;;;;;;;;;;4992508;28;20022;-51
2022/02/03 22:06:13;;;;;;;2.50;1.77;;;;;;;;;;4983686;28;20042;-52
2022/02/03 22:08:39;;;;;;;3.50;2.10;;;;;;;;;;4984298;28;20073;-52
2022/02/03 22:11:04;;;;;;;2.70;1.90;;;;;;;;;;4984208;28;20104;-52
2022/02/03 22:13:37;;;;;;;4.05;2.38;;;;;;;;;;4990816;28;20303;-52
2022/02/03 22:16:06;;;;;;;2.97;2.10;;;;;;;;;;5003763;28;20404;-53
2022/02/03 22:18:31;;;;;;;2.72;2.10;;;;;;;;;;5003304;28;20160;-53
2022/02/03 22:21:02;;;;;;;3.45;2.30;;;;;;;;;;5003949;28;20216;-53
2022/02/03 22:23:47;;;;;;;2.85;1.95;;;;;;;;;;4995408;28;20030;-52
2022/02/03 22:47:23;;;;;;;4.30;2.80;;;;;;;;;;4983481;28;20033;-50
2022/02/03 22:49:48;;;;;;;4.13;2.50;;;;;;;;;;4983422;28;20109;-50
2022/02/03 22:52:15;;;;;;;3.70;2.53;;;;;;;;;;4983279;28;20113;-51
2022/02/03 22:54:40;;;;;;;4.63;3.10;;;;;;;;;;5000858;28;20288;-51
2022/02/03 22:57:07;;;;;;;4.18;2.60;;;;;;;;;;5003145;28;20460;-51
2022/02/03 23:02:10;;;;;;;3.40;2.30;;;;;;;;;;5002467;28;20026;-52
2022/02/03 23:04:35;;;;;;;3.70;2.53;;;;;;;;;;4984970;28;20030;-52
2022/02/03 23:07:38;;;;;;;5.38;3.30;;;;;;;;;;4982808;28;20093;-51
2022/02/03 23:10:00;;;;;;;3.72;2.65;;;;;;;;;;4994863;28;20038;-51
2022/02/03 23:12:57;;;;;;;4.72;2.90;;;;;;;;;;5002675;28;20092;-51
2022/02/03 23:15:32;;;;;;;4.60;2.90;;;;;;;;;;4988592;28;20405;-52
2022/02/03 23:18:03;;;;;;;4.70;2.90;;;;;;;;;;5002689;28;20076;-51
2022/02/03 23:20:42;;;;;;;4.15;2.80;;;;;;;;;;5002434;28;20057;-51
2022/02/03 23:23:08;;;;;;;3.83;2.78;;;;;;;;;;4988090;28;20030;-51
2022/02/03 23:25:33;;;;;;;4.13;2.70;;;;;;;;;;5002678;28;20034;-52
2022/02/03 23:30:56;;;;;;;4.03;2.88;;;;;;;;;;5011694;28;20064;-51
2022/02/03 23:33:22;;;;;;;4.70;3.10;;;;;;;;;;5002446;28;20070;-50
2022/02/03 23:35:48;;;;;;;4.72;3.10;;;;;;;;;;5002104;28;20304;-50
